createdAt,value
2022-10-06T00:00:53.170Z,7.45
2022-10-06T00:03:23.187Z,8.10
2022-10-06T00:05:50.988Z,7.00
2022-10-06T00:08:18.888Z,6.65
2022-10-06T00:10:46.066Z,7.40
2022-10-06T00:13:12.907Z,7.05
2022-10-06T00:15:40.092Z,7.35
2022-10-06T00:18:06.900Z,6.68
2022-10-06T00:20:33.665Z,7.13
2022-10-06T00:23:00.751Z,7.68
2022-10-06T00:25:28.284Z,6.75
2022-10-06T00:27:56.080Z,6.75
2022-10-06T00:30:27.348Z,6.78
2022-10-06T00:32:57.364Z,6.90
2022-10-06T00:35:25.952Z,6.45
2022-10-06T00:37:52.931Z,7.10
2022-10-06T00:40:20.482Z,6.75
2022-10-06T00:43:05.838Z,7.15
2022-10-06T00:45:45.190Z,6.30
2022-10-06T00:48:21.962Z,6.93
2022-10-06T00:50:48.889Z,7.47
2022-10-06T00:53:17.047Z,6.45
2022-10-06T00:55:43.951Z,6.97
2022-10-06T00:58:12.332Z,6.40
2022-10-06T01:00:42.905Z,6.70
2022-10-06T01:03:19.185Z,7.72
2022-10-06T01:05:51.061Z,6.97
2022-10-06T01:08:18.493Z,7.07
2022-10-06T01:10:45.657Z,6.60
2022-10-06T01:13:13.399Z,6.85
2022-10-06T01:15:48.403Z,6.20
2022-10-06T01:18:18.778Z,6.30
2022-10-06T01:20:52.800Z,6.90
2022-10-06T01:23:20.168Z,6.43
2022-10-06T01:25:47.371Z,6.82
2022-10-06T01:28:15.100Z,6.38
2022-10-06T01:30:52.926Z,6.22
2022-10-06T01:33:22.344Z,6.55
2022-10-06T01:35:52.325Z,6.65
2022-10-06T01:38:20.499Z,6.50
2022-10-06T01:40:52.283Z,6.25
2022-10-06T01:43:19.538Z,7.10
2022-10-06T01:45:53.865Z,6.43
2022-10-06T01:48:21.062Z,7.63
2022-10-06T01:50:48.118Z,7.13
2022-10-06T01:53:15.273Z,7.13
2022-10-06T01:55:42.026Z,6.97
2022-10-06T01:58:11.438Z,6.88
2022-10-06T02:00:41.606Z,7.07
2022-10-06T02:03:08.771Z,6.75
2022-10-06T02:05:35.678Z,7.00
2022-10-06T02:08:03.058Z,6.70
2022-10-06T02:10:33.177Z,6.60
2022-10-06T02:12:59.880Z,7.10
2022-10-06T02:15:28.255Z,6.65
2022-10-06T02:17:55.904Z,6.63
2022-10-06T02:20:27.440Z,6.80
2022-10-06T02:22:54.053Z,7.10
2022-10-06T02:25:20.818Z,6.97
2022-10-06T02:27:48.333Z,7.22
2022-10-06T02:30:16.855Z,7.30
2022-10-06T02:32:46.230Z,6.65
2022-10-06T02:35:13.686Z,7.28
2022-10-06T02:37:44.151Z,7.20
2022-10-06T02:40:16.681Z,6.70
2022-10-06T02:42:46.113Z,6.97
2022-10-06T02:45:17.233Z,7.50
2022-10-06T02:47:44.810Z,7.32
2022-10-06T02:50:13.758Z,8.02
2022-10-06T02:52:42.832Z,8.88
2022-10-06T02:55:11.050Z,8.50
2022-10-06T02:57:38.014Z,8.30
2022-10-06T03:00:07.745Z,7.88
2022-10-06T03:02:34.730Z,8.13
2022-10-06T03:05:02.186Z,7.65
2022-10-06T03:07:28.905Z,8.75
2022-10-06T03:09:55.654Z,9.55
2022-10-06T03:12:24.500Z,8.60
2022-10-06T03:14:52.211Z,8.30
2022-10-06T03:17:19.738Z,8.60
2022-10-06T03:19:52.055Z,8.57
2022-10-06T03:22:19.051Z,8.68
2022-10-06T03:24:52.677Z,8.82
2022-10-06T03:27:21.409Z,8.18
2022-10-06T03:29:49.249Z,7.90
2022-10-06T03:32:16.123Z,8.73
2022-10-06T03:34:43.751Z,7.95
2022-10-06T03:37:13.490Z,7.72
2022-10-06T03:39:40.169Z,8.15
2022-10-06T03:42:07.383Z,8.07
2022-10-06T03:44:37.129Z,8.00
2022-10-06T03:47:04.817Z,7.78
2022-10-06T03:49:32.726Z,8.57
2022-10-06T03:51:59.378Z,8.50
2022-10-06T03:54:30.504Z,8.98
2022-10-06T03:56:57.151Z,9.00
2022-10-06T03:59:24.271Z,8.55
2022-10-06T04:01:53.077Z,8.95
2022-10-06T04:04:26.718Z,9.00
2022-10-06T04:06:59.068Z,9.65
2022-10-06T04:09:26.042Z,12.68
2022-10-06T04:11:53.266Z,11.93
2022-10-06T04:14:20.911Z,10.95
2022-10-06T04:16:50.174Z,10.35
2022-10-06T04:19:22.380Z,10.35
2022-10-06T04:21:53.458Z,9.30
2022-10-06T04:24:23.591Z,9.02
2022-10-06T04:26:52.615Z,9.20
2022-10-06T04:29:21.170Z,9.18
2022-10-06T04:31:57.225Z,8.48
2022-10-06T04:34:35.654Z,9.70
2022-10-06T04:37:04.075Z,9.75
2022-10-06T04:39:30.901Z,9.00
2022-10-06T04:41:58.212Z,9.00
2022-10-06T04:44:29.006Z,9.07
2022-10-06T04:47:00.688Z,9.73
2022-10-06T04:49:27.718Z,9.32
2022-10-06T04:51:56.182Z,8.65
2022-10-06T04:54:23.178Z,8.82
2022-10-06T04:56:54.462Z,9.05
2022-10-06T04:59:43.816Z,9.25
2022-10-06T05:02:12.032Z,8.70
2022-10-06T05:04:39.675Z,8.45
2022-10-06T05:07:07.318Z,8.70
2022-10-06T05:09:34.531Z,8.45
2022-10-06T05:12:02.630Z,8.43
2022-10-06T05:14:29.372Z,8.50
2022-10-06T05:16:56.147Z,9.30
2022-10-06T05:19:23.250Z,9.05
2022-10-06T05:21:49.973Z,9.00
2022-10-06T05:24:20.527Z,9.00
2022-10-06T05:26:49.579Z,8.55
2022-10-06T05:29:16.643Z,8.75
2022-10-06T05:31:44.970Z,8.90
2022-10-06T05:34:13.882Z,9.15
2022-10-06T05:36:40.633Z,8.55
2022-10-06T05:39:10.597Z,8.32
2022-10-06T05:41:43.623Z,8.48
2022-10-06T05:44:11.636Z,8.73
2022-10-06T05:46:40.129Z,9.48
2022-10-06T05:49:10.272Z,9.50
2022-10-06T05:51:40.532Z,9.57
2022-10-06T05:54:14.406Z,10.27
2022-10-06T05:56:41.562Z,8.05
2022-10-06T05:59:08.780Z,9.25
2022-10-06T06:01:39.845Z,8.82
2022-10-06T06:04:14.287Z,8.77
2022-10-06T06:06:49.019Z,9.40
2022-10-06T06:09:21.331Z,9.52
2022-10-06T06:11:53.087Z,9.98
2022-10-06T06:14:43.392Z,9.93
2022-10-06T06:17:13.783Z,10.32
2022-10-06T06:19:40.546Z,11.25
2022-10-06T06:22:08.347Z,12.30
2022-10-06T06:24:39.018Z,10.48
2022-10-06T06:27:05.843Z,10.70
2022-10-06T06:29:32.671Z,10.55
2022-10-06T06:31:59.438Z,8.90
2022-10-06T06:34:27.442Z,8.80
2022-10-06T06:37:02.335Z,8.13
2022-10-06T06:39:34.243Z,7.30
2022-10-06T06:42:02.112Z,7.10
2022-10-06T06:44:39.195Z,6.82
2022-10-06T06:47:13.479Z,6.68
2022-10-06T06:49:40.643Z,6.47
2022-10-06T06:52:08.991Z,7.25
2022-10-06T06:54:43.111Z,7.43
2022-10-06T06:57:14.827Z,8.50
2022-10-06T06:59:41.487Z,8.00
2022-10-06T07:02:11.909Z,7.55
2022-10-06T07:04:43.966Z,6.85
2022-10-06T07:07:14.240Z,7.20
2022-10-06T07:09:41.754Z,6.97
2022-10-06T07:12:11.453Z,6.82
2022-10-06T07:15:01.629Z,7.32
2022-10-06T07:17:48.996Z,7.18
2022-10-06T07:20:35.169Z,6.82
2022-10-06T07:23:20.582Z,7.10
2022-10-06T07:25:47.411Z,7.03
2022-10-06T07:28:16.981Z,7.10
2022-10-06T07:30:44.847Z,7.63
2022-10-06T07:33:15.801Z,7.00
2022-10-06T07:35:45.126Z,8.85
2022-10-06T07:38:13.506Z,8.43
2022-10-06T07:41:14.516Z,8.23
2022-10-06T07:43:33.314Z,7.60
2022-10-06T07:46:01.204Z,6.40
2022-10-06T07:48:32.494Z,7.43
2022-10-06T07:51:07.293Z,7.28
2022-10-06T07:53:37.447Z,6.40
2022-10-06T07:56:20.714Z,6.30
2022-10-06T07:58:51.731Z,5.80
2022-10-06T08:01:20.844Z,6.07
2022-10-06T08:03:50.883Z,5.25
2022-10-06T08:06:19.317Z,5.47
2022-10-06T08:08:51.832Z,4.57
2022-10-06T08:11:20.976Z,5.40
2022-10-06T08:13:51.832Z,6.10
2022-10-06T08:16:21.393Z,5.97
2022-10-06T08:18:53.409Z,5.93
2022-10-06T08:21:29.677Z,5.60
2022-10-06T08:23:57.777Z,5.38
2022-10-06T08:26:26.369Z,5.10
2022-10-06T08:28:57.502Z,5.55
2022-10-06T08:31:24.521Z,5.28
2022-10-06T08:33:56.671Z,5.30
2022-10-06T08:36:30.853Z,5.35
2022-10-06T08:38:58.574Z,5.65
2022-10-06T08:41:28.779Z,5.22
2022-10-06T08:44:18.552Z,4.95
2022-10-06T08:46:53.154Z,4.75
2022-10-06T08:49:22.341Z,5.55
2022-10-06T08:52:17.291Z,5.13
2022-10-06T08:54:56.159Z,5.35
2022-10-06T08:57:34.757Z,5.20
2022-10-06T09:00:04.103Z,5.88
2022-10-06T09:02:35.377Z,5.35
2022-10-06T09:05:06.224Z,5.75
2022-10-06T09:07:48.471Z,4.72
2022-10-06T09:10:41.194Z,5.60
2022-10-06T09:13:22.174Z,5.03
2022-10-06T09:15:55.947Z,5.70
2022-10-06T09:18:56.449Z,5.30
2022-10-06T09:21:35.930Z,6.13
2022-10-06T09:24:10.827Z,6.32
2022-10-06T09:26:44.101Z,5.85
2022-10-06T09:29:11.689Z,5.97
2022-10-06T09:31:42.204Z,6.20
2022-10-06T09:34:08.843Z,5.72
2022-10-06T09:37:03.240Z,5.65
2022-10-06T09:39:37.022Z,5.93
2022-10-06T09:42:21.099Z,5.63
2022-10-06T09:44:56.881Z,5.50
2022-10-06T09:47:37.150Z,5.18
2022-10-06T09:50:14.501Z,5.72
2022-10-06T09:53:05.939Z,5.05
2022-10-06T09:55:39.261Z,4.60
2022-10-06T09:58:24.194Z,4.75
2022-10-06T10:01:00.473Z,4.32
2022-10-06T10:03:51.463Z,4.13
2022-10-06T10:06:35.183Z,3.75
2022-10-06T10:09:29.100Z,4.13
2022-10-06T10:12:27.864Z,3.58
2022-10-06T10:15:16.207Z,3.15
2022-10-06T10:17:49.248Z,3.28
2022-10-06T10:20:28.340Z,3.10
2022-10-06T10:23:17.806Z,2.55
2022-10-06T10:25:55.394Z,2.97
2022-10-06T10:28:34.863Z,2.83
2022-10-06T10:31:33.481Z,3.25
2022-10-06T10:34:24.833Z,2.55
2022-10-06T10:39:38.315Z,2.20
2022-10-06T10:42:15.394Z,2.50
2022-10-06T10:44:51.836Z,2.20
2022-10-06T10:47:30.786Z,1.90
2022-10-06T10:50:06.695Z,2.13
2022-10-06T10:52:41.494Z,1.70
2022-10-06T10:55:28.547Z,1.70
2022-10-06T10:58:15.009Z,1.70
2022-10-06T11:00:44.404Z,2.33
2022-10-06T11:03:11.920Z,2.20
2022-10-06T11:06:03.127Z,2.40
2022-10-06T11:08:38.614Z,2.00
2022-10-06T11:11:22.466Z,1.90
2022-10-06T11:13:52.801Z,1.60
2022-10-06T11:16:40.259Z,1.83
2022-10-06T11:19:27.681Z,1.48
2022-10-06T11:22:27.084Z,2.05
2022-10-06T11:25:05.079Z,2.10
2022-10-06T11:27:54.481Z,2.13
2022-10-06T11:30:27.020Z,1.90
2022-10-06T11:33:07.976Z,1.95
2022-10-06T11:35:39.497Z,2.13
2022-10-06T11:38:33.136Z,1.88
2022-10-06T11:41:11.740Z,1.88
2022-10-06T11:44:03.782Z,1.67
2022-10-06T11:46:49.518Z,1.52
2022-10-06T11:49:39.332Z,1.70
2022-10-06T11:52:08.338Z,1.55
2022-10-06T11:54:55.097Z,1.92
2022-10-06T11:57:29.636Z,1.80
2022-10-06T12:00:03.667Z,1.55
2022-10-06T12:02:33.985Z,1.80
2022-10-06T12:05:28.681Z,1.70
2022-10-06T12:07:56.765Z,1.80
2022-10-06T12:10:29.412Z,2.00
2022-10-06T12:14:01.671Z,1.75
2022-10-06T12:19:29.821Z,1.98
2022-10-06T12:22:12.373Z,1.77
2022-10-06T12:24:47.593Z,1.75
2022-10-06T12:27:23.371Z,1.67
2022-10-06T12:30:06.728Z,1.70
2022-10-06T12:32:52.706Z,1.70
2022-10-06T12:35:24.876Z,1.80
2022-10-06T12:37:54.747Z,1.80
2022-10-06T12:40:57.960Z,1.95
2022-10-06T12:43:32.553Z,1.75
2022-10-06T12:46:07.647Z,1.85
2022-10-06T12:48:50.175Z,1.60
2022-10-06T12:51:30.458Z,1.90
2022-10-06T12:54:10.172Z,2.10
2022-10-06T12:56:39.819Z,2.40
2022-10-06T12:59:29.174Z,1.80
2022-10-06T13:02:28.738Z,2.15
2022-10-06T13:05:11.087Z,2.30
2022-10-06T13:07:57.344Z,1.77
2022-10-06T13:10:25.100Z,2.40
2022-10-06T13:12:52.922Z,2.13
2022-10-06T13:15:29.726Z,2.20
2022-10-06T13:18:04.226Z,2.15
2022-10-06T13:21:04.138Z,2.38
2022-10-06T13:23:34.874Z,2.10
2022-10-06T13:26:14.714Z,2.30
2022-10-06T13:28:43.861Z,1.92
2022-10-06T13:31:35.239Z,1.95
2022-10-06T13:34:05.297Z,1.58
2022-10-06T13:36:35.413Z,1.77
2022-10-06T13:39:26.370Z,1.65
2022-10-06T13:42:03.489Z,2.13
2022-10-06T13:44:39.210Z,1.70
2022-10-06T13:47:19.225Z,2.05
2022-10-06T13:49:56.718Z,1.70
2022-10-06T13:52:49.061Z,1.80
2022-10-06T13:55:28.721Z,1.88
2022-10-06T13:58:03.566Z,1.90
2022-10-06T14:00:50.162Z,1.70
2022-10-06T14:06:19.245Z,1.80
2022-10-06T14:08:51.863Z,1.70
2022-10-06T14:11:24.783Z,1.90
2022-10-06T14:13:55.454Z,1.85
2022-10-06T14:16:24.762Z,1.90
2022-10-06T14:19:03.821Z,1.85
2022-10-06T14:21:41.493Z,1.60
2022-10-06T14:24:17.086Z,2.08
2022-10-06T14:26:45.631Z,1.58
2022-10-06T14:29:16.119Z,1.80
2022-10-06T14:31:43.754Z,1.88
2022-10-06T14:34:15.666Z,2.00
2022-10-06T14:36:55.033Z,2.25
2022-10-06T14:39:22.497Z,1.65
2022-10-06T14:41:49.231Z,2.30
2022-10-06T14:44:16.324Z,2.00
2022-10-06T14:46:48.076Z,2.10
2022-10-06T14:49:15.795Z,2.10
2022-10-06T14:51:44.071Z,2.45
2022-10-06T14:54:11.873Z,2.53
2022-10-06T14:56:40.174Z,2.42
2022-10-06T14:59:10.054Z,2.20
2022-10-06T15:01:40.144Z,2.50
2022-10-06T15:04:15.351Z,2.20
2022-10-06T15:07:01.122Z,2.30
2022-10-06T15:09:30.874Z,2.03
2022-10-06T15:11:58.508Z,2.28
2022-10-06T15:14:25.635Z,2.30
2022-10-06T15:16:52.582Z,2.15
2022-10-06T15:19:19.523Z,2.88
2022-10-06T15:21:46.394Z,2.58
2022-10-06T15:24:19.105Z,2.30
2022-10-06T15:27:05.678Z,2.50
2022-10-06T15:29:34.880Z,2.30
2022-10-06T15:32:03.690Z,2.65
2022-10-06T15:34:33.551Z,2.75
2022-10-06T15:37:01.013Z,2.90
2022-10-06T15:39:30.362Z,3.05
2022-10-06T15:41:58.092Z,3.17
2022-10-06T15:44:27.420Z,2.70
2022-10-06T15:46:56.029Z,2.80
2022-10-06T15:49:29.594Z,3.20
2022-10-06T15:51:59.432Z,3.20
2022-10-06T15:54:28.560Z,3.22
2022-10-06T15:56:59.399Z,3.08
2022-10-06T15:59:28.010Z,3.75
2022-10-06T16:01:57.977Z,3.10
2022-10-06T16:04:55.172Z,3.85
2022-10-06T16:07:21.879Z,3.65
2022-10-06T16:09:50.212Z,3.50
2022-10-06T16:12:20.510Z,3.85
2022-10-06T16:14:47.915Z,3.38
2022-10-06T16:17:15.244Z,3.45
2022-10-06T16:19:42.499Z,3.42
2022-10-06T16:22:12.277Z,3.47
2022-10-06T16:24:39.317Z,3.33
2022-10-06T16:27:07.363Z,3.55
2022-10-06T16:29:34.473Z,4.10
2022-10-06T16:32:01.548Z,4.40
2022-10-06T16:34:30.330Z,4.38
2022-10-06T16:36:58.055Z,5.10
2022-10-06T16:39:25.233Z,4.75
2022-10-06T16:41:52.664Z,5.47
2022-10-06T16:44:19.385Z,6.03
2022-10-06T16:46:46.942Z,7.13
2022-10-06T16:49:13.988Z,6.63
2022-10-06T16:51:43.346Z,6.90
2022-10-06T16:54:12.661Z,6.80
2022-10-06T16:56:42.450Z,5.90
2022-10-06T16:59:15.141Z,5.32
2022-10-06T17:01:42.576Z,5.35
2022-10-06T17:04:10.894Z,4.80
2022-10-06T17:06:40.122Z,4.93
2022-10-06T17:09:08.636Z,4.80
2022-10-06T17:11:36.111Z,4.50
2022-10-06T17:14:03.437Z,5.00
2022-10-06T17:16:34.257Z,4.45
2022-10-06T17:19:01.375Z,4.53
2022-10-06T17:21:45.465Z,5.20
2022-10-06T17:24:14.712Z,4.30
2022-10-06T17:26:42.982Z,4.60
2022-10-06T17:29:21.300Z,4.60
2022-10-06T17:31:50.713Z,4.60
2022-10-06T17:34:21.944Z,4.38
2022-10-06T17:36:52.123Z,4.60
2022-10-06T17:39:22.552Z,4.90
2022-10-06T17:41:51.954Z,5.10
2022-10-06T17:44:26.638Z,5.05
2022-10-06T17:46:57.255Z,4.90
2022-10-06T17:49:24.929Z,5.18
2022-10-06T17:51:54.745Z,4.88
2022-10-06T17:54:23.408Z,5.47
2022-10-06T17:56:52.524Z,6.03
2022-10-06T17:59:22.529Z,6.82
2022-10-06T18:01:51.346Z,5.93
2022-10-06T18:04:18.549Z,5.65
2022-10-06T18:06:46.611Z,5.28
2022-10-06T18:09:14.799Z,5.65
2022-10-06T18:11:44.024Z,5.30
2022-10-06T18:14:19.567Z,6.18
2022-10-06T18:16:56.231Z,5.40
2022-10-06T18:19:28.684Z,5.70
2022-10-06T18:21:58.813Z,6.00
2022-10-06T18:24:27.704Z,5.55
2022-10-06T18:26:56.702Z,5.60
2022-10-06T18:29:28.243Z,6.00
2022-10-06T18:32:01.339Z,5.72
2022-10-06T18:37:23.423Z,6.93
2022-10-06T18:39:50.255Z,5.57
2022-10-06T18:42:17.868Z,7.13
2022-10-06T18:45:03.156Z,6.35
2022-10-06T18:47:48.540Z,5.93
2022-10-06T18:50:15.529Z,6.88
2022-10-06T18:52:43.780Z,6.45
2022-10-06T18:55:10.648Z,6.57
2022-10-06T18:57:37.706Z,6.47
2022-10-06T19:00:04.900Z,7.28
2022-10-06T19:02:32.351Z,6.55
2022-10-06T19:04:59.240Z,6.10
2022-10-06T19:07:30.825Z,6.88
2022-10-06T19:09:57.522Z,6.75
2022-10-06T19:12:24.239Z,6.82
2022-10-06T19:14:53.726Z,6.82
2022-10-06T19:17:23.024Z,6.53
2022-10-06T19:19:55.244Z,7.45
2022-10-06T19:22:24.431Z,6.55
2022-10-06T19:24:52.407Z,7.45
2022-10-06T19:27:24.335Z,7.25
2022-10-06T19:29:54.216Z,7.22
2022-10-06T19:32:26.507Z,7.63
2022-10-06T19:34:58.022Z,7.05
2022-10-06T19:37:27.856Z,7.53
2022-10-06T19:39:54.531Z,7.32
2022-10-06T19:42:40.088Z,8.07
2022-10-06T19:45:08.600Z,7.50
2022-10-06T19:47:35.584Z,7.50
2022-10-06T19:50:08.799Z,7.63
2022-10-06T19:52:38.526Z,7.35
2022-10-06T19:55:05.573Z,7.57
2022-10-06T19:57:33.596Z,7.15
2022-10-06T20:00:00.651Z,7.55
2022-10-06T20:02:28.832Z,7.43
2022-10-06T20:04:56.581Z,7.93
2022-10-06T20:07:27.938Z,7.22
2022-10-06T20:09:55.814Z,7.03
2022-10-06T20:12:25.400Z,7.82
2022-10-06T20:14:53.692Z,7.18
2022-10-06T20:17:20.853Z,7.68
2022-10-06T20:19:48.172Z,8.43
2022-10-06T20:22:15.018Z,8.48
2022-10-06T20:24:42.061Z,8.07
2022-10-06T20:27:09.088Z,8.65
2022-10-06T20:29:36.154Z,7.68
2022-10-06T20:32:05.454Z,8.65
2022-10-06T20:34:35.241Z,7.60
2022-10-06T20:37:03.647Z,7.72
2022-10-06T20:39:53.766Z,7.97
2022-10-06T20:42:21.004Z,7.65
2022-10-06T20:44:48.451Z,7.75
2022-10-06T20:47:16.763Z,7.68
2022-10-06T20:49:44.456Z,7.25
2022-10-06T20:52:14.530Z,7.93
2022-10-06T20:54:42.466Z,7.97
2022-10-06T20:57:09.672Z,8.63
2022-10-06T20:59:37.851Z,7.75
2022-10-06T21:02:06.321Z,7.82
2022-10-06T21:04:34.451Z,7.47
2022-10-06T21:07:04.034Z,7.75
2022-10-06T21:09:30.939Z,7.60
2022-10-06T21:11:57.673Z,7.93
2022-10-06T21:14:25.342Z,6.82
2022-10-06T21:16:51.990Z,7.97
2022-10-06T21:19:19.556Z,8.02
2022-10-06T21:21:52.124Z,7.85
2022-10-06T21:26:46.416Z,8.00
2022-10-06T21:29:15.503Z,8.05
2022-10-06T21:31:43.729Z,7.93
2022-10-06T21:34:10.984Z,7.78
2022-10-06T21:36:38.464Z,7.35
2022-10-06T21:39:07.132Z,7.68
2022-10-06T21:41:39.877Z,7.82
2022-10-06T21:46:48.027Z,7.18
2022-10-06T21:49:17.965Z,6.90
2022-10-06T21:51:46.912Z,7.55
2022-10-06T21:54:14.705Z,7.80
2022-10-06T21:56:41.799Z,7.40
2022-10-06T21:59:09.328Z,7.47
2022-10-06T22:01:42.237Z,7.03
2022-10-06T22:04:11.876Z,6.93
2022-10-06T22:06:38.803Z,6.82
2022-10-06T22:09:07.481Z,7.43
2022-10-06T22:11:37.325Z,7.00
2022-10-06T22:14:06.668Z,7.63
2022-10-06T22:16:35.652Z,7.38
2022-10-06T22:19:04.638Z,7.15
2022-10-06T22:21:35.820Z,7.90
2022-10-06T22:24:14.710Z,7.00
2022-10-06T22:26:42.953Z,8.85
2022-10-06T22:29:12.627Z,7.85
2022-10-06T22:31:41.541Z,7.10
2022-10-06T22:34:11.244Z,7.05
2022-10-06T22:36:38.129Z,7.38
2022-10-06T22:39:05.587Z,7.72
2022-10-06T22:41:32.602Z,8.00
2022-10-06T22:44:00.195Z,6.53
2022-10-06T22:46:29.845Z,7.45
2022-10-06T22:48:56.712Z,7.47
2022-10-06T22:51:23.918Z,6.97
2022-10-06T22:53:58.144Z,7.80
2022-10-06T22:56:31.637Z,6.93
2022-10-06T22:59:00.137Z,8.10
2022-10-06T23:01:29.533Z,8.13
2022-10-06T23:03:56.893Z,7.60
2022-10-06T23:06:24.682Z,8.05
2022-10-06T23:08:52.131Z,7.93
2022-10-06T23:11:20.497Z,7.65
2022-10-06T23:13:48.561Z,7.97
2022-10-06T23:16:17.213Z,7.28
2022-10-06T23:18:45.145Z,7.43
2022-10-06T23:21:21.667Z,7.32
2022-10-06T23:23:51.670Z,7.43
2022-10-06T23:26:19.330Z,7.32
2022-10-06T23:28:50.307Z,7.07
2022-10-06T23:31:17.641Z,7.45
2022-10-06T23:33:44.332Z,7.13
2022-10-06T23:36:12.448Z,6.72
2022-10-06T23:38:39.646Z,7.70
2022-10-06T23:41:07.174Z,6.88
2022-10-06T23:43:34.740Z,7.15
2022-10-06T23:46:02.170Z,7.20
2022-10-06T23:48:29.601Z,7.45
2022-10-06T23:50:56.383Z,7.10
2022-10-06T23:53:23.974Z,6.90
2022-10-06T23:55:50.652Z,7.07
2022-10-06T23:58:20.674Z,7.20
